Terminal Aerodrome Forecast
Issued by NWS Sterling, VA

Current Version | Previous Version | Graphics & Text | Print | Product List | Glossary On
Versions: 1 2 3 4 5 6 7 8 9 10 11 12 13 14 15 16 17 18 19 20 21
000
FTUS41 KLWX 192336
TAFDCA
TAF
KDCA 192336Z 2000/2024 22006KT P6SM SCT070
     FM200300 VRB04KT P6SM BKN110
     FM200600 02009KT P6SM BKN150
     FM201000 04011G18KT P6SM BKN025
     FM201700 08009KT P6SM BKN025
     FM202000 09010G17KT P6SM BKN035
     FM202300 10009KT P6SM BKN025=

USA.gov is the U.S. government's official web portal to all federal, state and local government web resources and services.